Time;durP1;ratioP1;P1;durP2;ratioP2;P2;SDS_P1;SDS_P2;PMS_P1;PMS_P2;Temp;Humidity;BMP_temperature;BMP_pressure;BME280_temperature;BME280_humidity;BME280_pressure;Samples;Min_cycle;Max_cycle;Signal;HPM_P1;HPM_P2
2023/03/16 00:01:25;;;;;;;2.38;0.60;;;;;;;-2.41;36.73;97896.59;6319140;28;20055;-67
2023/03/16 00:04:31;;;;;;;1.75;0.50;;;;;;;-2.41;37.17;97904.31;6319171;28;20535;-66
2023/03/16 00:07:38;;;;;;;0.57;0.38;;;;;;;-2.40;36.71;97911.22;6317966;28;20063;-67
2023/03/16 00:10:45;;;;;;;0.35;0.35;;;;;;;-2.57;37.37;97903.44;6319028;28;20113;-67
2023/03/16 00:13:52;;;;;;;0.28;0.28;;;;;;;-2.79;37.97;97917.94;6317737;28;20060;-67
2023/03/16 00:16:57;;;;;;;0.20;0.20;;;;;;;-2.81;37.46;97919.63;6317966;28;20090;-67
2023/03/16 00:20:05;;;;;;;0.73;0.38;;;;;;;-2.72;37.10;97905.94;6318845;28;20055;-68
2023/03/16 00:23:11;;;;;;;0.10;0.10;;;;;;;-2.86;36.90;97907.59;6318890;28;20048;-66
2023/03/16 00:26:16;;;;;;;0.30;0.30;;;;;;;-2.87;37.27;97918.75;6318685;28;20040;-67
2023/03/16 00:29:22;;;;;;;0.30;0.30;;;;;;;-2.50;36.17;97925.78;6319100;28;20218;-66
2023/03/16 00:32:37;;;;;;;0.30;0.30;;;;;;;-2.47;36.23;97914.63;6317540;28;20528;-67
2023/03/16 00:36:00;;;;;;;0.22;0.22;;;;;;;-2.38;35.62;97924.09;6318726;28;20553;-67
2023/03/16 00:39:10;;;;;;;1.65;0.50;;;;;;;-2.56;36.84;97910.31;6318636;28;20126;-67
2023/03/16 00:42:18;;;;;;;2.80;1.00;;;;;;;-2.80;37.04;97911.06;6318719;28;20508;-67
2023/03/16 00:45:24;;;;;;;6.32;1.48;;;;;;;-3.03;38.29;97908.38;6317103;28;20048;-67
2023/03/16 00:48:28;;;;;;;8.05;1.08;;;;;;;-3.27;39.14;97903.94;6299766;28;20048;-65
2023/03/16 00:51:33;;;;;;;4.10;1.20;;;;;;;-3.37;40.12;97920.16;6318538;28;20044;-67
2023/03/16 00:54:41;;;;;;;3.97;0.80;;;;;;;-3.45;40.13;97921.84;6319427;28;20535;-67
2023/03/16 00:57:45;;;;;;;5.82;1.60;;;;;;;-3.56;40.61;97918.34;6322797;28;20395;-67
2023/03/16 01:00:53;;;;;;;1.10;0.65;;;;;;;-3.43;39.90;97922.69;6322959;28;20044;-66
2023/03/16 01:03:58;;;;;;;2.42;0.75;;;;;;;-3.35;39.48;97910.75;6323221;28;20039;-67
2023/03/16 01:07:03;;;;;;;3.08;0.57;;;;;;;-3.35;38.79;97915.91;6323000;28;20043;-66
2023/03/16 01:10:08;;;;;;;3.35;1.45;;;;;;;-3.38;39.04;97924.44;6322637;28;20044;-67
2023/03/16 01:13:16;;;;;;;1.92;0.55;;;;;;;-3.41;39.15;97929.59;6322694;28;20044;-68
2023/03/16 01:16:23;;;;;;;1.58;0.50;;;;;;;-3.44;39.08;97932.13;6322596;28;20043;-67
2023/03/16 01:19:27;;;;;;;2.55;0.98;;;;;;;-3.43;38.63;97927.84;6322248;28;20044;-68
2023/03/16 01:22:29;;;;;;;0.55;0.40;;;;;;;-3.37;38.69;97933.03;6322131;28;20043;-68
2023/03/16 01:25:31;;;;;;;4.30;1.38;;;;;;;-3.31;38.74;97938.25;6322101;28;20035;-66
2023/03/16 01:28:33;;;;;;;2.67;1.10;;;;;;;-3.27;38.21;97929.69;6321854;28;20051;-67
2023/03/16 01:31:35;;;;;;;6.15;2.25;;;;;;;-3.39;39.77;97935.59;6322076;28;20162;-68
2023/03/16 01:34:38;;;;;;;9.88;2.42;;;;;;;-3.62;40.55;97932.88;6319874;28;20043;-67
2023/03/16 01:37:40;;;;;;;5.55;2.50;;;;;;;-3.79;41.83;97936.13;6321658;28;20044;-67
2023/03/16 01:40:44;;;;;;;11.00;3.25;;;;;;;-3.97;42.51;97934.25;6321313;28;20433;-66
2023/03/16 01:43:50;;;;;;;13.10;3.72;;;;;;;-4.11;43.07;97929.84;6321678;28;20039;-66
2023/03/16 01:46:53;;;;;;;12.77;2.60;;;;;;;-4.20;43.59;97934.88;6321892;28;20048;-66
2023/03/16 01:49:56;;;;;;;15.25;2.78;;;;;;;-4.29;44.21;97932.22;6321489;28;20040;-67
2023/03/16 01:52:57;;;;;;;16.27;3.60;;;;;;;-4.35;44.11;97937.31;6321768;28;20040;-69
2023/03/16 01:56:07;;;;;;;11.32;3.22;;;;;;;-4.39;44.77;97951.81;6321542;28;20454;-68
2023/03/16 01:59:16;;;;;;;11.40;2.40;;;;;;;-4.43;45.27;97955.19;6321111;28;20425;-66
2023/03/16 02:02:20;;;;;;;8.45;2.50;;;;;;;-4.52;44.77;97948.25;6321068;28;20063;-67
2023/03/16 02:05:29;;;;;;;2.90;1.00;;;;;;;-4.45;44.07;97956.03;6320629;28;20036;-68
2023/03/16 02:08:36;;;;;;;4.28;2.00;;;;;;;-4.46;43.56;97934.59;6320711;28;20056;-66
2023/03/16 02:11:42;;;;;;;2.05;1.20;;;;;;;-4.00;41.55;97955.66;6320322;28;20044;-67
2023/03/16 02:14:49;;;;;;;1.48;0.65;;;;;;;-3.76;40.59;97952.47;6321213;28;20048;-67
2023/03/16 02:18:15;;;;;;;1.45;0.50;;;;;;;-3.56;39.53;97951.78;6320147;28;20044;-67
2023/03/16 02:21:32;;;;;;;3.60;1.10;;;;;;;-3.55;39.71;97963.78;6320909;28;20503;-68
2023/03/16 02:24:37;;;;;;;1.42;0.60;;;;;;;-3.68;39.71;97952.50;6320431;28;20501;-68
2023/03/16 02:27:56;;;;;;;5.82;1.52;;;;;;;-3.70;40.73;97964.50;6320770;28;20048;-67
2023/03/16 02:31:01;;;;;;;0.73;0.60;;;;;;;-3.68;39.98;97953.41;6320670;28;20642;-67
2023/03/16 02:34:07;;;;;;;4.05;1.17;;;;;;;-3.56;39.72;97956.94;6319483;28;20062;-67
2023/03/16 02:37:12;;;;;;;9.70;2.55;;;;;;;-3.64;40.39;97952.56;6320728;28;20040;-66
2023/03/16 02:40:31;;;;;;;12.20;2.88;;;;;;;-3.64;42.09;97950.00;6320464;28;20194;-67
2023/03/16 02:43:39;;;;;;;33.30;5.57;;;;;;;-3.74;42.46;97953.31;6320364;28;20081;-66
2023/03/16 02:46:46;;;;;;;33.25;6.05;;;;;;;-3.73;42.60;97960.22;6320397;28;20058;-67
2023/03/16 02:49:51;;;;;;;52.10;8.20;;;;;;;-3.77;43.26;97953.28;6320120;28;20124;-69
2023/03/16 02:52:56;;;;;;;44.25;7.65;;;;;;;-3.76;43.86;97955.03;6320068;28;20101;-68
2023/03/16 02:56:01;;;;;;;42.00;8.30;;;;;;;-3.71;44.04;97952.47;6320357;28;20089;-68
2023/03/16 02:59:06;;;;;;;36.95;7.35;;;;;;;-3.73;44.42;97949.91;6319928;28;20501;-66
2023/03/16 03:02:11;;;;;;;24.95;5.80;;;;;;;-3.74;44.04;97955.03;6320251;28;20093;-68
2023/03/16 03:05:16;;;;;;;59.25;8.02;;;;;;;-3.70;44.47;97964.50;6319722;28;20470;-68
2023/03/16 03:08:22;;;;;;;41.42;7.47;;;;;;;-3.73;44.90;97957.63;6320184;28;20053;-68
2023/03/16 03:11:27;;;;;;;35.88;7.53;;;;;;;-3.61;44.54;97978.31;6319743;28;20683;-67
2023/03/16 03:14:36;;;;;;;35.63;7.50;;;;;;;-3.56;44.49;97974.94;6319652;28;20081;-67
2023/03/16 03:17:41;;;;;;;44.35;7.75;;;;;;;-3.46;44.55;97979.28;6319134;28;20425;-67
2023/03/16 03:20:46;;;;;;;37.00;6.20;;;;;;;-3.39;44.01;97973.34;6318250;28;20061;-67
2023/03/16 03:23:51;;;;;;;16.17;4.47;;;;;;;-3.20;43.39;97980.38;6319502;28;20077;-67
2023/03/16 03:26:56;;;;;;;35.75;6.63;;;;;;;-3.05;43.36;97971.03;6319448;28;20055;-66
2023/03/16 03:30:01;;;;;;;36.45;7.35;;;;;;;-2.94;43.69;97979.69;6319295;28;20040;-67
2023/03/16 03:33:07;;;;;;;40.38;5.78;;;;;;;-2.80;43.32;97972.00;6319400;28;20125;-67
2023/03/16 03:36:13;;;;;;;25.05;5.45;;;;;;;-2.64;43.44;97988.44;6320021;28;20085;-68
2023/03/16 03:39:18;;;;;;;32.83;6.72;;;;;;;-2.53;42.94;97976.44;6319780;28;20047;-67
2023/03/16 03:42:25;;;;;;;47.20;6.63;;;;;;;-2.36;42.79;97985.13;6318761;28;20097;-67
2023/03/16 03:45:30;;;;;;;28.80;4.90;;;;;;;-2.20;42.09;97990.34;6319392;28;20401;-67
2023/03/16 03:48:36;;;;;;;13.90;4.15;;;;;;;-1.97;41.31;97988.69;6319109;28;20049;-67
2023/03/16 03:51:40;;;;;;;21.25;4.78;;;;;;;-1.74;41.58;97990.47;6319122;28;20092;-67
2023/03/16 03:54:45;;;;;;;31.77;10.77;;;;;;;-1.51;41.01;97998.22;6318865;28;20070;-66
2023/03/16 03:57:49;;;;;;;56.88;17.50;;;;;;;-1.29;40.51;97987.06;6318885;28;20047;-67
2023/03/16 04:00:54;;;;;;;40.50;10.68;;;;;;;-0.95;39.53;97997.38;6317702;28;20085;-68
2023/03/16 04:03:57;;;;;;;;;;;;;;;-0.61;39.90;97999.91;6318047;28;20470;-67
2023/03/16 04:07:02;;;;;;;26.48;9.10;;;;;;;-0.31;38.50;98007.56;6318910;28;20012;-68
2023/03/16 04:10:06;;;;;;;20.77;6.00;;;;;;;0.00;36.95;98002.28;6318909;28;20051;-67
2023/03/16 04:13:10;;;;;;;18.88;5.97;;;;;;;0.26;36.83;97996.94;6318942;28;20097;-67
2023/03/16 04:16:15;;;;;;;33.63;7.47;;;;;;;0.59;37.21;98002.75;6317971;28;20052;-67
2023/03/16 04:19:20;;;;;;;16.23;6.10;;;;;;;0.87;36.94;98006.84;6318974;28;20048;-68
2023/03/16 04:22:24;;;;;;;11.73;2.95;;;;;;;1.11;35.47;98004.94;6319059;28;20520;-67
2023/03/16 04:25:29;;;;;;;34.08;6.20;;;;;;;1.32;35.64;97999.53;6317509;28;20058;-68
2023/03/16 04:28:33;;;;;;;56.55;8.02;;;;;;;1.50;35.66;97998.50;6318958;28;20077;-67
2023/03/16 04:31:41;;;;;;;35.53;6.38;;;;;;;1.62;35.63;98000.09;6323128;28;20054;-67
2023/03/16 04:34:47;;;;;;;24.10;6.00;;;;;;;1.67;35.59;98011.28;6323253;28;20543;-67
2023/03/16 04:37:51;;;;;;;31.85;6.10;;;;;;;1.63;36.49;98009.59;6323708;28;20134;-67
2023/03/16 04:40:55;;;;;;;25.63;5.85;;;;;;;1.57;36.23;97994.09;6323175;28;20577;-68
2023/03/16 04:44:00;;;;;;;24.23;6.35;;;;;;;1.42;36.77;97989.09;6323218;28;20032;-68
2023/03/16 04:47:06;;;;;;;20.80;6.78;;;;;;;1.33;36.84;98003.88;6323278;28;20132;-68
2023/03/16 04:50:12;;;;;;;28.02;5.15;;;;;;;1.26;36.24;98003.94;6322991;28;20044;-67
2023/03/16 04:53:17;;;;;;;23.80;5.13;;;;;;;1.26;36.48;98015.16;6323232;28;20438;-67
2023/03/16 04:56:22;;;;;;;21.55;4.38;;;;;;;1.35;36.71;98025.44;6322916;28;20096;-68
2023/03/16 04:59:27;;;;;;;18.88;3.90;;;;;;;1.50;35.97;98028.75;6304771;28;20058;-67
2023/03/16 05:02:32;;;;;;;17.90;3.13;;;;;;;1.71;34.80;98018.16;6322131;28;20145;-67
2023/03/16 05:05:38;;;;;;;17.02;2.63;;;;;;;1.77;34.87;98027.59;6322712;28;20044;-67
2023/03/16 05:08:42;;;;;;;14.13;2.50;;;;;;;1.89;34.78;98022.25;6322452;28;20130;-67
2023/03/16 05:11:47;;;;;;;14.13;2.45;;;;;;;2.13;34.48;98015.91;6322698;28;20557;-67
2023/03/16 05:14:48;;;;;;;;;;;;;;;2.40;34.33;98021.59;6322482;28;20044;-67
2023/03/16 05:17:57;;;;;;;16.92;2.83;;;;;;;2.62;34.18;98025.63;6322605;28;20403;-68
2023/03/16 05:20:59;;;;;;;11.32;2.58;;;;;;;2.87;34.15;98022.66;6320580;28;20164;-68
2023/03/16 05:24:03;;;;;;;6.13;2.10;;;;;;;3.03;33.37;98021.53;6322065;28;20040;-68
2023/03/16 05:27:10;;;;;;;9.93;2.33;;;;;;;3.34;33.19;98031.41;6322249;28;20044;-67
2023/03/16 05:30:17;;;;;;;13.98;2.72;;;;;;;3.58;33.37;98030.97;6322084;28;20044;-67
2023/03/16 05:33:21;;;;;;;13.80;2.70;;;;;;;3.79;32.83;98023.63;6321847;28;20130;-67
2023/03/16 05:36:25;;;;;;;15.20;4.75;;;;;;;4.00;32.92;98028.44;6321787;28;20044;-68
2023/03/16 05:39:33;;;;;;;10.73;3.22;;;;;;;4.23;32.40;98029.69;6322016;28;20044;-68
2023/03/16 05:42:34;;;;;;;7.45;3.05;;;;;;;4.42;32.18;98019.75;6321030;28;20433;-67
2023/03/16 05:45:38;;;;;;;12.43;3.08;;;;;;;4.92;31.55;98030.75;6322033;28;20044;-67
2023/03/16 05:48:39;;;;;;;5.63;3.03;;;;;;;9.31;26.89;98017.41;6321754;28;20059;-68
2023/03/16 05:51:42;;;;;;;12.48;3.28;;;;;;;15.20;21.40;98031.06;6321732;28;20456;-67
2023/03/16 05:54:45;;;;;;;12.07;3.25;;;;;;;19.89;18.13;98029.03;6321455;28;20397;-68
2023/03/16 05:57:46;;;;;;;11.73;2.30;;;;;;;23.88;15.51;98024.31;6321294;28;20055;-67
2023/03/16 06:00:54;;;;;;;10.02;2.03;;;;;;;26.56;13.15;98024.56;6320924;28;20540;-67
2023/03/16 06:03:57;;;;;;;7.00;2.05;;;;;;;28.02;12.59;98027.53;6321250;28;20051;-67
2023/03/16 06:07:02;;;;;;;5.07;1.17;;;;;;;28.77;11.35;98033.94;6321382;28;20059;-68
2023/03/16 06:10:07;;;;;;;6.55;1.00;;;;;;;30.12;10.89;98036.13;6321315;28;20130;-68
2023/03/16 06:13:08;;;;;;;5.20;0.98;;;;;;;31.73;9.99;98026.88;6319451;28;20052;-68
2023/03/16 06:16:13;;;;;;;6.05;0.95;;;;;;;32.96;9.42;98039.22;6320927;28;20048;-67
2023/03/16 06:19:17;;;;;;;5.10;1.10;;;;;;;33.80;9.15;98035.53;6320938;28;20079;-67
2023/03/16 06:22:24;;;;;;;2.55;0.88;;;;;;;35.35;8.32;98044.84;6320946;28;20043;-67
2023/03/16 06:25:28;;;;;;;2.95;0.77;;;;;;;36.68;6.86;98043.72;6319775;28;20488;-68
2023/03/16 06:28:30;;;;;;;4.97;0.80;;;;;;;37.37;6.25;98054.88;6320785;28;20032;-67
2023/03/16 06:31:32;;;;;;;4.72;0.98;;;;;;;37.00;6.21;98041.44;6320313;28;20402;-68
2023/03/16 06:34:35;;;;;;;3.92;0.80;;;;;;;36.00;7.02;98045.00;6320159;28;20509;-68
2023/03/16 06:37:39;;;;;;;3.13;1.02;;;;;;;34.06;7.67;98044.63;6320564;28;20036;-68
2023/03/16 06:40:50;;;;;;;1.52;0.40;;;;;;;31.42;7.64;98032.84;6320745;28;20040;-67
2023/03/16 06:43:51;;;;;;;2.03;0.75;;;;;;;29.08;8.85;98023.75;6320751;28;20043;-68
2023/03/16 06:46:52;;;;;;;1.10;0.40;;;;;;;27.62;9.32;98021.38;6320014;28;20509;-67
2023/03/16 06:49:57;;;;;;;2.70;0.73;;;;;;;27.12;9.18;98019.97;6320180;28;20044;-68
2023/03/16 06:53:01;;;;;;;3.65;0.90;;;;;;;27.28;9.59;98014.47;6319201;28;20071;-68
2023/03/16 06:56:05;;;;;;;2.63;0.63;;;;;;;28.51;9.18;98016.28;6320040;28;20047;-68
2023/03/16 06:59:07;;;;;;;3.42;0.60;;;;;;;29.54;8.53;98020.75;6319448;28;20055;-67
2023/03/16 07:02:13;;;;;;;5.72;0.90;;;;;;;29.57;8.01;98026.81;6319764;28;20062;-67
2023/03/16 07:05:15;;;;;;;7.72;0.98;;;;;;;28.62;8.59;98012.25;6319864;28;20055;-68
2023/03/16 07:08:19;;;;;;;2.25;0.80;;;;;;;28.72;8.67;98006.56;6319908;28;20044;-67
2023/03/16 07:11:22;;;;;;;3.88;0.85;;;;;;;29.41;8.37;98001.59;6319250;28;20052;-68
2023/03/16 07:14:26;;;;;;;1.92;1.15;;;;;;;30.46;8.04;98010.13;6319686;28;20064;-68
2023/03/16 07:17:27;;;;;;;3.78;1.60;;;;;;;30.70;7.42;98001.50;6319245;28;20044;-69
2023/03/16 07:20:31;;;;;;;4.55;1.20;;;;;;;30.51;7.34;98007.66;6319551;28;20035;-68
2023/03/16 07:23:39;;;;;;;1.38;0.50;;;;;;;30.34;7.78;98007.94;6319629;28;20043;-69
2023/03/16 07:26:42;;;;;;;4.25;0.70;;;;;;;29.52;8.07;97998.38;6319571;28;20052;-68
2023/03/16 07:29:44;;;;;;;2.15;0.43;;;;;;;29.50;7.52;98010.50;6319235;28;20423;-68
2023/03/16 07:32:45;;;;;;;0.90;0.50;;;;;;;30.37;6.90;98001.28;6319479;28;20059;-69
2023/03/16 07:35:50;;;;;;;0.98;0.30;;;;;;;32.14;6.23;98009.53;6318164;28;20040;-70
2023/03/16 07:38:57;;;;;;;0.70;0.30;;;;;;;33.96;5.58;98012.31;6319454;28;20040;-69
2023/03/16 07:42:04;;;;;;;1.17;0.50;;;;;;;35.90;4.96;98023.69;6319385;28;20448;-68
2023/03/16 07:45:07;;;;;;;0.60;0.30;;;;;;;36.83;5.06;98026.75;6318755;28;20044;-68
2023/03/16 07:48:11;;;;;;;0.85;0.40;;;;;;;37.00;4.56;98022.22;6319479;28;20048;-67
2023/03/16 07:51:18;;;;;;;2.30;0.60;;;;;;;36.63;4.51;98024.41;6319188;28;20048;-69
2023/03/16 07:54:23;;;;;;;3.90;0.70;;;;;;;35.86;5.25;98016.16;6319015;28;20063;-69
2023/03/16 07:57:27;;;;;;;0.52;0.40;;;;;;;35.11;5.57;98003.69;6318633;28;20071;-69
2023/03/16 08:00:34;;;;;;;1.63;0.50;;;;;;;33.57;5.66;98002.47;6319367;28;20092;-68
2023/03/16 08:03:39;;;;;;;8.85;5.82;;;;;;;34.05;5.54;97997.34;6320244;28;20040;-69
2023/03/16 08:06:44;;;;;;;1.50;1.05;;;;;;;35.40;5.43;97984.78;6323927;28;20131;-67
2023/03/16 08:09:50;;;;;;;2.13;0.80;;;;;;;36.03;5.07;97995.22;6324010;28;20409;-68
2023/03/16 08:12:54;;;;;;;2.70;0.75;;;;;;;36.81;4.57;98001.50;6323729;28;20132;-68
2023/03/16 08:16:00;;;;;;;3.25;0.68;;;;;;;38.22;4.47;98011.97;6323954;28;20054;-68
2023/03/16 08:19:04;;;;;;;2.08;0.73;;;;;;;39.88;4.08;98007.31;6323982;28;20047;-68
2023/03/16 08:22:08;;;;;;;1.25;0.50;;;;;;;40.76;3.67;98000.59;6323895;28;20048;-67
2023/03/16 08:25:13;;;;;;;3.35;1.42;;;;;;;38.98;4.61;98003.22;6323714;28;20042;-67
2023/03/16 08:28:20;;;;;;;2.45;1.23;;;;;;;36.04;5.55;97988.69;6323771;28;20035;-68
2023/03/16 08:31:24;;;;;;;3.63;1.35;;;;;;;36.34;5.42;97982.31;6323653;28;20500;-67
2023/03/16 08:34:29;;;;;;;2.80;1.63;;;;;;;38.03;4.86;97983.06;6323720;28;20501;-67
2023/03/16 08:37:32;;;;;;;4.07;1.75;;;;;;;37.66;4.57;97987.09;6323546;28;20123;-68
2023/03/16 08:40:36;;;;;;;3.92;1.35;;;;;;;34.48;5.51;97971.09;6323096;28;20077;-68
2023/03/16 08:43:41;;;;;;;5.60;1.30;;;;;;;33.99;5.79;97969.00;6323307;28;20417;-68
2023/03/16 08:46:45;;;;;;;4.97;1.50;;;;;;;34.23;5.68;97963.78;6323289;28;20411;-68
2023/03/16 08:49:51;;;;;;;3.15;1.65;;;;;;;34.71;5.77;97965.84;6323169;28;20054;-67
2023/03/16 08:52:55;;;;;;;6.28;2.15;;;;;;;34.72;6.01;97961.22;6323063;28;20447;-67
2023/03/16 08:56:11;;;;;;;3.80;1.35;;;;;;;33.75;5.99;97961.66;6323270;28;20093;-69
2023/03/16 08:59:15;;;;;;;5.20;1.85;;;;;;;32.36;5.97;97963.03;6322866;28;20053;-67
2023/03/16 09:02:21;;;;;;;4.50;1.42;;;;;;;31.27;7.05;97950.53;6322521;28;20134;-69
2023/03/16 09:05:25;;;;;;;4.07;2.20;;;;;;;30.88;6.86;97946.63;6322980;28;20050;-70
2023/03/16 09:08:32;;;;;;;2.30;1.73;;;;;;;30.98;7.36;97943.56;6322756;28;20138;-68
2023/03/16 09:11:37;;;;;;;6.28;3.28;;;;;;;31.04;7.66;97948.19;6322628;28;20051;-69
2023/03/16 09:14:41;;;;;;;5.40;2.90;;;;;;;31.18;7.49;97944.47;6322229;28;20085;-67
2023/03/16 09:17:44;;;;;;;7.55;3.53;;;;;;;32.39;6.88;97940.81;6322379;28;20512;-69
2023/03/16 09:20:50;;;;;;;6.82;2.60;;;;;;;32.29;6.13;97948.56;6322430;28;20439;-68
2023/03/16 09:23:53;;;;;;;6.97;2.33;;;;;;;33.45;6.26;97951.31;6322113;28;20043;-67
2023/03/16 09:26:58;;;;;;;9.82;3.05;;;;;;;34.32;5.58;97946.03;6322208;28;20036;-69
2023/03/16 09:30:06;;;;;;;5.85;2.30;;;;;;;33.71;6.26;97942.13;6322481;28;20042;-68
2023/03/16 09:33:11;;;;;;;8.48;5.10;;;;;;;32.12;7.76;97940.84;6321720;28;20057;-69
2023/03/16 09:36:16;;;;;;;5.53;2.67;;;;;;;30.68;8.74;97932.94;6322057;28;20120;-69
2023/03/16 09:39:21;;;;;;;15.40;7.22;;;;;;;29.65;9.37;97935.34;6321864;28;20068;-68
2023/03/16 09:42:51;;;;;;;7.80;3.97;;;;;;;28.92;10.54;97929.09;6322525;28;20040;-68
2023/03/16 09:46:20;;;;;;;9.60;3.13;;;;;;;28.85;10.67;97931.75;6321999;28;20074;-68
2023/03/16 09:49:35;;;;;;;7.15;2.83;;;;;;;28.35;10.98;97927.09;6322026;28;20462;-68
2023/03/16 09:52:55;;;;;;;11.85;2.80;;;;;;;27.98;11.39;97924.25;6321517;28;20044;-68
2023/03/16 09:56:40;;;;;;;10.63;3.58;;;;;;;27.31;11.71;97922.25;6321609;28;20193;-68
2023/03/16 09:59:44;;;;;;;12.73;3.05;;;;;;;25.92;12.39;97889.59;6225303;28;20037;-69
2023/03/16 10:03:29;;;;;;;10.95;2.80;;;;;;;25.48;12.33;97896.19;6321283;28;20044;-68
2023/03/16 10:06:41;;;;;;;5.80;2.80;;;;;;;26.16;12.03;97905.72;6321263;28;20044;-69
2023/03/16 10:10:27;;;;;;;6.10;2.47;;;;;;;28.43;10.77;97905.38;6321321;28;20039;-69
2023/03/16 10:13:49;;;;;;;5.35;2.03;;;;;;;29.20;10.41;97902.13;6284330;28;20082;-70
2023/03/16 10:16:59;;;;;;;6.07;1.80;;;;;;;28.55;10.70;97906.56;6320980;28;20043;-69
2023/03/16 10:20:13;;;;;;;7.10;2.42;;;;;;;28.74;10.85;97901.59;6320886;28;20036;-68
2023/03/16 10:23:26;;;;;;;5.65;2.05;;;;;;;29.17;10.49;97898.97;6320957;28;20040;-69
2023/03/16 10:26:43;;;;;;;7.60;2.30;;;;;;;30.16;10.15;97896.28;6320285;28;20448;-68
2023/03/16 10:29:47;;;;;;;4.32;2.15;;;;;;;30.80;9.98;97898.78;6320678;28;20040;-68
2023/03/16 10:32:54;;;;;;;7.80;2.33;;;;;;;31.24;9.39;97899.28;6320695;28;20039;-69
2023/03/16 10:36:18;;;;;;;8.07;2.30;;;;;;;31.51;9.49;97889.34;6320243;28;20044;-69
2023/03/16 10:39:34;;;;;;;5.63;2.42;;;;;;;31.28;9.74;97900.53;6320710;28;20043;-69
2023/03/16 10:42:38;;;;;;;5.45;2.33;;;;;;;31.20;9.76;97901.59;6320514;28;20036;-69
2023/03/16 10:45:45;;;;;;;5.05;2.13;;;;;;;30.90;9.59;97902.97;6320183;28;20052;-68
2023/03/16 10:49:00;;;;;;;8.15;2.13;;;;;;;30.68;9.82;97903.06;6320385;28;20051;-68
2023/03/16 10:52:28;;;;;;;6.47;2.60;;;;;;;30.91;9.88;97904.63;6320242;28;20047;-68
2023/03/16 10:55:42;;;;;;;6.72;2.95;;;;;;;30.11;10.36;97883.31;6319944;28;20047;-68
2023/03/16 10:58:45;;;;;;;6.38;3.50;;;;;;;29.33;10.47;97885.19;6320034;28;20048;-68
2023/03/16 11:01:48;;;;;;;6.25;2.78;;;;;;;28.35;11.13;97876.47;6320499;28;20429;-68
2023/03/16 11:04:56;;;;;;;8.80;2.75;;;;;;;27.00;11.90;97870.09;6319960;28;20036;-68
2023/03/16 11:08:02;;;;;;;9.02;3.00;;;;;;;27.31;12.08;97870.91;6319805;28;20501;-68
2023/03/16 11:11:28;;;;;;;12.75;2.92;;;;;;;28.11;11.88;97880.34;6319440;28;20051;-69
2023/03/16 11:14:33;;;;;;;7.07;2.70;;;;;;;27.83;11.83;97872.00;6319331;28;20059;-68
2023/03/16 11:17:38;;;;;;;6.38;2.63;;;;;;;27.51;11.87;97892.88;6319292;28;20067;-69
2023/03/16 11:20:40;;;;;;;4.10;2.00;;;;;;;27.07;12.08;97881.88;6319290;28;20047;-68
2023/03/16 11:23:50;;;;;;;4.30;2.10;;;;;;;26.86;12.41;97885.19;6317467;28;20143;-67
2023/03/16 11:26:58;;;;;;;7.68;2.20;;;;;;;26.67;12.29;97891.91;6319511;28;20098;-69
2023/03/16 11:30:05;;;;;;;7.47;2.55;;;;;;;26.50;12.26;97882.19;6319010;28;20040;-69
2023/03/16 11:33:10;;;;;;;6.25;2.20;;;;;;;25.72;13.02;97881.84;6318977;28;20050;-68
2023/03/16 11:36:34;;;;;;;8.40;2.50;;;;;;;24.82;13.82;97878.25;6319224;28;20039;-69
2023/03/16 11:39:57;;;;;;;10.38;3.35;;;;;;;24.89;14.05;97876.59;6319323;28;20501;-68
2023/03/16 11:43:24;;;;;;;6.55;2.67;;;;;;;24.45;14.18;97876.78;6306969;28;20052;-69
2023/03/16 11:46:38;;;;;;;6.90;3.00;;;;;;;24.33;13.89;97878.06;6319102;28;20121;-69
2023/03/16 11:49:59;;;;;;;10.13;2.78;;;;;;;23.94;14.24;97878.53;6317613;28;20044;-68
2023/03/16 11:53:22;;;;;;;5.25;2.13;;;;;;;23.97;13.95;97880.91;6319233;28;20044;-68
2023/03/16 11:56:41;;;;;;;5.93;1.90;;;;;;;23.67;14.41;97883.06;6318809;28;20047;-68
2023/03/16 12:00:26;;;;;;;7.40;2.95;;;;;;;23.62;14.39;97884.53;6318906;28;20509;-70
2023/03/16 12:04:21;;;;;;;7.07;2.67;;;;;;;23.06;14.74;97857.88;6318083;28;20040;-69
2023/03/16 12:11:44;;;;;;;7.13;3.13;;;;;;;21.94;15.43;97876.84;6318444;28;20052;-68
2023/03/16 12:15:13;;;;;;;12.90;2.90;;;;;;;21.07;15.23;97877.78;6316634;28;20574;-68
2023/03/16 12:18:31;;;;;;;9.38;2.17;;;;;;;20.12;15.74;97874.75;6318060;28;20055;-68
2023/03/16 12:21:42;;;;;;;2.40;1.70;;;;;;;19.71;16.07;97869.38;6317628;28;20551;-69
2023/03/16 12:24:47;;;;;;;6.70;2.67;;;;;;;19.05;17.26;97868.75;6318720;28;20055;-68
2023/03/16 12:27:53;;;;;;;5.47;2.00;;;;;;;18.96;17.57;97872.19;6318211;28;20067;-69
2023/03/16 12:31:13;;;;;;;4.63;2.50;;;;;;;19.54;17.14;97874.44;6318004;28;20060;-69
2023/03/16 12:34:30;;;;;;;3.33;2.60;;;;;;;19.59;17.65;97885.56;6318228;28;20036;-68
2023/03/16 12:37:44;;;;;;;2.90;2.30;;;;;;;18.33;18.06;97878.16;6318491;28;20048;-68
2023/03/16 12:41:06;;;;;;;3.03;2.08;;;;;;;16.72;18.97;97866.56;6317848;28;20059;-69
2023/03/16 12:44:18;;;;;;;4.38;1.92;;;;;;;15.50;19.88;97876.97;6318620;28;20104;-67
2023/03/16 12:47:27;;;;;;;7.38;3.63;;;;;;;15.16;20.77;97866.97;6317930;28;20549;-68
2023/03/16 12:50:31;;;;;;;2.72;1.92;;;;;;;14.57;21.30;97870.00;6318813;28;20058;-67
2023/03/16 12:53:53;;;;;;;7.55;2.25;;;;;;;13.68;23.04;97875.59;6321735;28;20051;-68
2023/03/16 12:57:06;;;;;;;2.45;2.05;;;;;;;12.96;24.55;97866.66;6322740;28;20051;-68
2023/03/16 13:00:10;;;;;;;2.03;1.80;;;;;;;12.52;25.32;97872.72;6322471;28;20074;-70
2023/03/16 13:03:19;;;;;;;3.08;2.15;;;;;;;12.29;25.13;97874.88;6322356;28;20143;-67
2023/03/16 13:06:23;;;;;;;2.88;1.50;;;;;;;11.44;25.90;97877.69;6322087;28;20520;-69
2023/03/16 13:09:31;;;;;;;1.60;1.30;;;;;;;10.59;26.75;97875.84;6322395;28;20047;-69
2023/03/16 13:12:40;;;;;;;1.77;1.40;;;;;;;9.61;27.98;97873.38;6322658;28;20452;-68
2023/03/16 13:15:46;;;;;;;1.38;1.27;;;;;;;8.83;28.67;97871.53;6322890;28;20151;-68
2023/03/16 13:18:51;;;;;;;1.85;1.25;;;;;;;8.32;29.22;97873.56;6322154;28;20052;-69
2023/03/16 13:22:05;;;;;;;3.78;2.60;;;;;;;7.82;30.34;97875.50;6321895;28;20550;-69
2023/03/16 13:25:35;;;;;;;5.88;3.53;;;;;;;7.33;31.18;97879.91;6322239;28;20047;-70
2023/03/16 13:28:38;;;;;;;8.05;4.82;;;;;;;7.04;31.74;97879.19;6320981;28;20055;-68
2023/03/16 13:31:43;;;;;;;6.80;4.05;;;;;;;6.81;31.56;97876.50;6321971;28;20410;-69
2023/03/16 13:34:55;;;;;;;5.28;3.30;;;;;;;6.57;31.81;97873.81;6322150;28;20566;-68
2023/03/16 13:38:05;;;;;;;8.20;4.37;;;;;;;6.42;32.37;97879.50;6322334;28;20508;-68
2023/03/16 13:41:13;;;;;;;24.38;12.25;;;;;;;6.10;32.46;97870.94;6321728;28;20078;-67
2023/03/16 13:44:22;;;;;;;10.63;6.30;;;;;;;6.10;32.93;97876.16;6321876;28;20062;-68
2023/03/16 13:47:27;;;;;;;12.35;7.15;;;;;;;5.93;33.21;97881.03;6321728;28;20104;-70
2023/03/16 13:50:37;;;;;;;12.85;6.47;;;;;;;5.78;33.88;97892.78;6320730;28;20117;-68
2023/03/16 13:53:43;;;;;;;8.20;4.60;;;;;;;5.67;33.83;97884.41;6321617;28;20039;-69
2023/03/16 13:56:47;;;;;;;6.60;3.17;;;;;;;5.60;34.33;97888.94;6320249;28;20143;-68
2023/03/16 13:59:52;;;;;;;;;;;;;;;5.43;33.88;97891.16;6322024;28;20108;-68
2023/03/16 14:03:05;;;;;;;5.45;3.10;;;;;;;5.34;35.54;97887.91;6321525;28;19926;-67
2023/03/16 14:06:25;;;;;;;5.35;3.03;;;;;;;5.18;35.56;97886.63;6321646;28;20075;-68
2023/03/16 14:09:33;;;;;;;5.30;2.95;;;;;;;4.97;36.23;97881.97;6321529;28;20043;-67
2023/03/16 14:12:39;;;;;;;6.28;3.42;;;;;;;4.82;36.01;97883.25;6321290;28;20130;-68
2023/03/16 14:15:45;;;;;;;3.13;1.98;;;;;;;4.86;35.83;97883.09;6321002;28;20040;-67
2023/03/16 14:18:56;;;;;;;4.15;1.77;;;;;;;4.72;36.32;97890.44;6319909;28;20455;-67
2023/03/16 14:22:04;;;;;;;2.95;1.98;;;;;;;4.63;36.19;97888.06;6320859;28;20421;-69
2023/03/16 14:25:21;;;;;;;2.50;1.40;;;;;;;4.75;35.44;97892.97;6320725;28;20440;-67
2023/03/16 14:28:31;;;;;;;3.58;2.33;;;;;;;4.65;35.96;97894.09;6320649;28;20047;-69
2023/03/16 14:31:38;;;;;;;6.90;3.30;;;;;;;4.48;37.29;97897.97;6319766;28;20505;-67
2023/03/16 14:34:48;;;;;;;6.90;3.83;;;;;;;4.33;37.77;97900.94;6320884;28;20443;-69
2023/03/16 14:37:55;;;;;;;9.00;4.78;;;;;;;4.19;38.77;97897.78;6320791;28;20048;-68
2023/03/16 14:41:20;;;;;;;7.88;4.75;;;;;;;4.09;39.52;97911.94;6320293;28;20088;-67
2023/03/16 14:44:32;;;;;;;7.78;5.05;;;;;;;3.97;40.01;97908.69;6320456;28;20044;-67
2023/03/16 14:47:42;;;;;;;5.88;3.72;;;;;;;3.87;40.46;97907.19;6320362;28;20085;-68
2023/03/16 14:50:53;;;;;;;9.38;4.95;;;;;;;3.74;41.19;97910.94;6316193;28;20128;-70
2023/03/16 14:53:57;;;;;;;13.77;7.10;;;;;;;3.67;41.88;97922.38;6320032;28;20057;-67